Repubbli Del Brasile — IBZB — position and weather

sailwx.info

Track history (hours):
 
Tides and Currents Weather Stations Pressure Air Temp Water Temp Dewpoint Dewpoint Depression Visibility Wind Speed Wind Dir Waves Ship Positions

Repubbli Del Brasile

Last reported at 2015-Aug-01 04:33 UTC. Time now 2015-Aug-04 03:18 UTC.
Position N 28°10' W 013°47'.

Length 209 m; draft 9.8 m.

Type: Ship (hazmat cat B). MMSI: 247310000.

Date/timePositionNaut miles runAvg speedWind from/ knotsBaromVisibWave heightAir tempDewpointWater temp
2015-Aug-01 04:33N 28°10' W 013°47'1815.8
2015-Aug-01 03:25N 28°26' W 013°38'  
2015-Jul-29 07:27N 36°43' W 001°47'1516.3
2015-Jul-29 06:33N 36°52' W 001°33'1716.7
2015-Jul-29 05:33N 37°03' W 001°18'1717.1
2015-Jul-29 04:33N 37°15' W 001°01'1616.7
2015-Jul-29 03:33N 37°26' W 000°46'1616.5
2015-Jul-29 02:33N 37°37' W 000°31'1616.4
2015-Jul-29 01:33N 37°51' W 000°20'2016.6
2015-Jul-29 00:20N 38°08' W 000°06'1616.5
2015-Jul-28 23:22N 38°21' E 000°06'1416.7
2015-Jul-28 22:33N 38°33' E 000°15'2115.8
2015-Jul-28 21:15N 38°53' E 000°22'4416.4
2015-Jul-28 18:33N 39°25' W 000°17'2 2.0
2015-Jul-28 17:31N 39°27' W 000°18'0 0.0
2015-Jul-28 16:31N 39°27' W 000°18'0 0.0
2015-Jul-28 15:33N 39°27' W 000°18'0 0.0
2015-Jul-28 14:33N 39°27' W 000°18'0 0.0
2015-Jul-28 13:32N 39°27' W 000°18'0 0.0
2015-Jul-28 12:32N 39°27' W 000°18'0 0.0
2015-Jul-28 11:31N 39°27' W 000°18'0 0.0
2015-Jul-28 10:31N 39°27' W 000°18'0 0.0
2015-Jul-28 09:31N 39°27' W 000°18'0 0.0
2015-Jul-28 08:33N 39°27' W 000°18'0 0.0
2015-Jul-28 07:33N 39°27' W 000°18'0 0.0
2015-Jul-28 06:32N 39°27' W 000°18'1 1.2
2015-Jul-28 05:33N 39°25' W 000°18'5 5.0
2015-Jul-28 04:33N 39°24' W 000°11'7117.4
2015-Jul-28 00:28N 39°13' E 001°19'1717.4
2015-Jul-27 23:31N 39°11' E 001°40'1717.7
2015-Jul-27 22:33N 39°08' E 002°02'1817.7
2015-Jul-27 21:33N 39°05' E 002°25'1817.8
2015-Jul-27 20:33N 39°02' E 002°47'2017.9
2015-Jul-27 19:27N 39°00' E 003°12'1617.2
2015-Jul-27 18:33N 38°59' E 003°32'1817.4
2015-Jul-27 17:30N 38°58' E 003°56'22917.7
2015-Jul-27 04:33N 38°41' E 008°49'1717.2
2015-Jul-27 03:33N 38°45' E 009°10'1818.2
2015-Jul-27 02:33N 38°52' E 009°32'22018.0
2015-Jul-26 14:21N 40°20' E 013°53'1417.9
2015-Jul-26 13:33N 40°26' E 014°10'2117.7
2015-Jul-26 12:23N 40°33' E 014°36'2 0.1
2015-Jul-25 17:30N 40°33' E 014°39'2 1.9
2015-Jul-25 16:33N 40°33' E 014°36'4 3.5
2015-Jul-25 15:29N 40°32' E 014°32'7 6.1
2015-Jul-25 14:23N 40°30' E 014°23'910.7
2015-Jul-25 13:33N 40°30' E 014°11'1716.7
2015-Jul-25 12:33N 40°35' E 013°50'23116.5
2015-Jul-24 22:33N 43°14' E 010°06'1717.1
2015-Jul-24 21:33N 43°31' E 010°12'6 5.5
2015-Jul-24 20:32N 43°34' E 010°18'0 0.0
2015-Jul-24 19:31N 43°34' E 010°18'0 0.0
2015-Jul-24 18:31N 43°34' E 010°18'0 0.0
2015-Jul-24 17:33N 43°34' E 010°18'0 0.0
2015-Jul-24 16:33N 43°34' E 010°18'0 0.0
2015-Jul-24 15:32N 43°34' E 010°18'0 0.0
2015-Jul-24 14:32N 43°34' E 010°18'0 0.0
2015-Jul-24 13:32N 43°34' E 010°18'0 0.0
2015-Jul-24 12:31N 43°34' E 010°18'0 0.0
2015-Jul-24 11:31N 43°34' E 010°18'0 0.0
2015-Jul-24 10:33N 43°34' E 010°18'0 0.0
2015-Jul-24 09:33N 43°34' E 010°18'0 0.0
2015-Jul-24 08:33N 43°34' E 010°18'4 4.2
2015-Jul-24 07:33N 43°31' E 010°15'5 5.0
2015-Jul-24 06:33N 43°26' E 010°16'0 0.3
2015-Jul-24 05:33N 43°26' E 010°16'4 4.4
2015-Jul-24 04:33N 43°27' E 010°10'8 7.8
2015-Jul-24 03:33N 43°30' E 009°60'9 8.8
2015-Jul-24 02:33N 43°34' E 009°49'1211.9
2015-Jul-24 01:33N 43°41' E 009°36'1212.0
2015-Jul-24 00:33N 43°49' E 009°24'1211.8
2015-Jul-23 23:33N 43°58' E 009°12'1212.0
2015-Jul-23 22:33N 44°09' E 009°05'1212.1
2015-Jul-23 21:33N 44°20' E 008°58'6 5.5
2015-Jul-23 20:31N 44°24' E 008°53'0 0.0
2015-Jul-23 19:33N 44°24' E 008°53'0 0.0
2015-Jul-23 18:30N 44°24' E 008°53'0 0.0
2015-Jul-23 17:33N 44°24' E 008°53'0 0.0
2015-Jul-23 16:32N 44°24' E 008°53'0 0.0
2015-Jul-23 15:32N 44°24' E 008°53'0 0.0
2015-Jul-23 14:31N 44°24' E 008°53'0 0.0
2015-Jul-23 13:31N 44°24' E 008°53'0 0.0
2015-Jul-23 12:33N 44°24' E 008°53'0 0.0
2015-Jul-23 11:33N 44°24' E 008°53'0 0.0
2015-Jul-23 10:30N 44°24' E 008°53'0 0.0
2015-Jul-23 09:29N 44°24' E 008°53'0 0.0
2015-Jul-23 08:32N 44°24' E 008°53'0 0.0
2015-Jul-23 07:31N 44°24' E 008°53'0 0.0
2015-Jul-23 06:28N 44°24' E 008°53'0 0.0
2015-Jul-23 05:33N 44°24' E 008°53'0 0.0
2015-Jul-23 04:33N 44°24' E 008°53'0 0.0
2015-Jul-23 03:33N 44°24' E 008°53'0 0.0
2015-Jul-23 02:32N 44°24' E 008°53'0 0.0
2015-Jul-23 01:32N 44°24' E 008°53'0 0.0
2015-Jul-23 00:31N 44°24' E 008°53'0 0.0
2015-Jul-22 23:31N 44°24' E 008°53'0 0.0
2015-Jul-22 22:30N 44°24' E 008°53'0 0.0
2015-Jul-22 21:30N 44°24' E 008°53'0 0.0
2015-Jul-22 20:33N 44°24' E 008°53'0 0.0
2015-Jul-22 19:32N 44°24' E 008°53'0 0.0
2015-Jul-22 18:32N 44°24' E 008°53'0 0.0
2015-Jul-22 17:28N 44°24' E 008°53'0 0.0
2015-Jul-22 16:31N 44°24' E 008°53'0 0.0
2015-Jul-22 15:33N 44°24' E 008°53'0 0.0
2015-Jul-22 14:33N 44°24' E 008°53'0 0.0
2015-Jul-22 13:32N 44°24' E 008°53'0 0.0
2015-Jul-22 12:32N 44°24' E 008°53'0 0.0
2015-Jul-22 11:32N 44°24' E 008°53'1 0.7
2015-Jul-22 10:33N 44°24' E 008°54'4 3.7
2015-Jul-22 09:33N 44°22' E 008°58'2 1.6
2015-Jul-22 08:33N 44°20' E 008°59'1010.5
2015-Jul-22 07:34N 44°13' E 008°48'1917.8
2015-Jul-22 06:30N 44°01' E 008°28'1717.8
2015-Jul-22 05:34N 43°50' E 008°10'1817.6
2015-Jul-22 04:33N 43°39' E 007°51'  
Track history (hours):
 
Tides and Currents Weather Stations Pressure Air Temp Water Temp Dewpoint Dewpoint Depression Visibility Wind Speed Wind Dir Waves Ship Positions

Repubbli Del Brasile

Last reported at 2015-Aug-01 04:33 UTC. Time now 2015-Aug-04 03:18 UTC.
Position N 28°10' W 013°47'.

Length 209 m; draft 9.8 m.

Type: Ship (hazmat cat B). MMSI: 247310000.

Date/timePositionNaut miles runAvg speedWind from/ knotsBaromVisibWave heightAir tempDewpointWater temp
2015-Aug-01 04:33N 28°10' W 013°47'1815.8
2015-Aug-01 03:25N 28°26' W 013°38'  
2015-Jul-29 07:27N 36°43' W 001°47'1516.3
2015-Jul-29 06:33N 36°52' W 001°33'1716.7
2015-Jul-29 05:33N 37°03' W 001°18'1717.1
2015-Jul-29 04:33N 37°15' W 001°01'1616.7
2015-Jul-29 03:33N 37°26' W 000°46'1616.5
2015-Jul-29 02:33N 37°37' W 000°31'1616.4
2015-Jul-29 01:33N 37°51' W 000°20'2016.6
2015-Jul-29 00:20N 38°08' W 000°06'1616.5
2015-Jul-28 23:22N 38°21' E 000°06'1416.7
2015-Jul-28 22:33N 38°33' E 000°15'2115.8
2015-Jul-28 21:15N 38°53' E 000°22'4416.4
2015-Jul-28 18:33N 39°25' W 000°17'2 2.0
2015-Jul-28 17:31N 39°27' W 000°18'0 0.0
2015-Jul-28 16:31N 39°27' W 000°18'0 0.0
2015-Jul-28 15:33N 39°27' W 000°18'0 0.0
2015-Jul-28 14:33N 39°27' W 000°18'0 0.0
2015-Jul-28 13:32N 39°27' W 000°18'0 0.0
2015-Jul-28 12:32N 39°27' W 000°18'0 0.0
2015-Jul-28 11:31N 39°27' W 000°18'0 0.0
2015-Jul-28 10:31N 39°27' W 000°18'0 0.0
2015-Jul-28 09:31N 39°27' W 000°18'0 0.0
2015-Jul-28 08:33N 39°27' W 000°18'0 0.0
2015-Jul-28 07:33N 39°27' W 000°18'0 0.0
2015-Jul-28 06:32N 39°27' W 000°18'1 1.2
2015-Jul-28 05:33N 39°25' W 000°18'5 5.0
2015-Jul-28 04:33N 39°24' W 000°11'7117.4
2015-Jul-28 00:28N 39°13' E 001°19'1717.4
2015-Jul-27 23:31N 39°11' E 001°40'1717.7
2015-Jul-27 22:33N 39°08' E 002°02'1817.7
2015-Jul-27 21:33N 39°05' E 002°25'1817.8
2015-Jul-27 20:33N 39°02' E 002°47'2017.9
2015-Jul-27 19:27N 39°00' E 003°12'1617.2
2015-Jul-27 18:33N 38°59' E 003°32'1817.4
2015-Jul-27 17:30N 38°58' E 003°56'22917.7
2015-Jul-27 04:33N 38°41' E 008°49'1717.2
2015-Jul-27 03:33N 38°45' E 009°10'1818.2
2015-Jul-27 02:33N 38°52' E 009°32'22018.0
2015-Jul-26 14:21N 40°20' E 013°53'1417.9
2015-Jul-26 13:33N 40°26' E 014°10'2117.7
2015-Jul-26 12:23N 40°33' E 014°36'2 0.1
2015-Jul-25 17:30N 40°33' E 014°39'2 1.9
2015-Jul-25 16:33N 40°33' E 014°36'4 3.5
2015-Jul-25 15:29N 40°32' E 014°32'7 6.1
2015-Jul-25 14:23N 40°30' E 014°23'910.7
2015-Jul-25 13:33N 40°30' E 014°11'1716.7
2015-Jul-25 12:33N 40°35' E 013°50'23116.5
2015-Jul-24 22:33N 43°14' E 010°06'1717.1
2015-Jul-24 21:33N 43°31' E 010°12'6 5.5
2015-Jul-24 20:32N 43°34' E 010°18'0 0.0
2015-Jul-24 19:31N 43°34' E 010°18'0 0.0
2015-Jul-24 18:31N 43°34' E 010°18'0 0.0
2015-Jul-24 17:33N 43°34' E 010°18'0 0.0
2015-Jul-24 16:33N 43°34' E 010°18'0 0.0
2015-Jul-24 15:32N 43°34' E 010°18'0 0.0
2015-Jul-24 14:32N 43°34' E 010°18'0 0.0
2015-Jul-24 13:32N 43°34' E 010°18'0 0.0
2015-Jul-24 12:31N 43°34' E 010°18'0 0.0
2015-Jul-24 11:31N 43°34' E 010°18'0 0.0
2015-Jul-24 10:33N 43°34' E 010°18'0 0.0
2015-Jul-24 09:33N 43°34' E 010°18'0 0.0
2015-Jul-24 08:33N 43°34' E 010°18'4 4.2
2015-Jul-24 07:33N 43°31' E 010°15'5 5.0
2015-Jul-24 06:33N 43°26' E 010°16'0 0.3
2015-Jul-24 05:33N 43°26' E 010°16'4 4.4
2015-Jul-24 04:33N 43°27' E 010°10'8 7.8
2015-Jul-24 03:33N 43°30' E 009°60'9 8.8
2015-Jul-24 02:33N 43°34' E 009°49'1211.9
2015-Jul-24 01:33N 43°41' E 009°36'1212.0
2015-Jul-24 00:33N 43°49' E 009°24'1211.8
2015-Jul-23 23:33N 43°58' E 009°12'1212.0
2015-Jul-23 22:33N 44°09' E 009°05'1212.1
2015-Jul-23 21:33N 44°20' E 008°58'6 5.5
2015-Jul-23 20:31N 44°24' E 008°53'0 0.0
2015-Jul-23 19:33N 44°24' E 008°53'0 0.0
2015-Jul-23 18:30N 44°24' E 008°53'0 0.0
2015-Jul-23 17:33N 44°24' E 008°53'0 0.0
2015-Jul-23 16:32N 44°24' E 008°53'0 0.0
2015-Jul-23 15:32N 44°24' E 008°53'0 0.0
2015-Jul-23 14:31N 44°24' E 008°53'0 0.0
2015-Jul-23 13:31N 44°24' E 008°53'0 0.0
2015-Jul-23 12:33N 44°24' E 008°53'0 0.0
2015-Jul-23 11:33N 44°24' E 008°53'0 0.0
2015-Jul-23 10:30N 44°24' E 008°53'0 0.0
2015-Jul-23 09:29N 44°24' E 008°53'0 0.0
2015-Jul-23 08:32N 44°24' E 008°53'0 0.0
2015-Jul-23 07:31N 44°24' E 008°53'0 0.0
2015-Jul-23 06:28N 44°24' E 008°53'0 0.0
2015-Jul-23 05:33N 44°24' E 008°53'0 0.0
2015-Jul-23 04:33N 44°24' E 008°53'0 0.0
2015-Jul-23 03:33N 44°24' E 008°53'0 0.0
2015-Jul-23 02:32N 44°24' E 008°53'0 0.0
2015-Jul-23 01:32N 44°24' E 008°53'0 0.0
2015-Jul-23 00:31N 44°24' E 008°53'0 0.0
2015-Jul-22 23:31N 44°24' E 008°53'0 0.0
2015-Jul-22 22:30N 44°24' E 008°53'0 0.0
2015-Jul-22 21:30N 44°24' E 008°53'0 0.0
2015-Jul-22 20:33N 44°24' E 008°53'0 0.0
2015-Jul-22 19:32N 44°24' E 008°53'0 0.0
2015-Jul-22 18:32N 44°24' E 008°53'0 0.0
2015-Jul-22 17:28N 44°24' E 008°53'0 0.0
2015-Jul-22 16:31N 44°24' E 008°53'0 0.0
2015-Jul-22 15:33N 44°24' E 008°53'0 0.0
2015-Jul-22 14:33N 44°24' E 008°53'0 0.0
2015-Jul-22 13:32N 44°24' E 008°53'0 0.0
2015-Jul-22 12:32N 44°24' E 008°53'0 0.0
2015-Jul-22 11:32N 44°24' E 008°53'1 0.7
2015-Jul-22 10:33N 44°24' E 008°54'4 3.7
2015-Jul-22 09:33N 44°22' E 008°58'2 1.6
2015-Jul-22 08:33N 44°20' E 008°59'1010.5
2015-Jul-22 07:34N 44°13' E 008°48'1917.8
2015-Jul-22 06:30N 44°01' E 008°28'1717.8
2015-Jul-22 05:34N 43°50' E 008°10'1817.6
2015-Jul-22 04:33N 43°39' E 007°51'  

Dump ship's entire track history